sensor_id;sensor_type;location;lat;lon;timestamp;P1;durP1;ratioP1;P2;durP2;ratioP2
46721;SDS011;32455;43.430;23.136;2022-12-04T00:01:10;13.52;;;5.78;;
46721;SDS011;32455;43.430;23.136;2022-12-04T00:03:59;14.45;;;6.03;;
46721;SDS011;32455;43.430;23.136;2022-12-04T00:06:45;14.52;;;5.93;;
46721;SDS011;32455;43.430;23.136;2022-12-04T00:09:32;11.77;;;6.03;;
46721;SDS011;32455;43.430;23.136;2022-12-04T00:12:17;18.77;;;5.55;;
46721;SDS011;32455;43.430;23.136;2022-12-04T00:15:02;13.52;;;6.10;;
46721;SDS011;32455;43.430;23.136;2022-12-04T00:17:48;16.02;;;7.65;;
46721;SDS011;32455;43.430;23.136;2022-12-04T00:20:37;16.83;;;8.27;;
46721;SDS011;32455;43.430;23.136;2022-12-04T00:23:24;15.30;;;6.75;;
46721;SDS011;32455;43.430;23.136;2022-12-04T00:26:11;13.90;;;6.00;;
46721;SDS011;32455;43.430;23.136;2022-12-04T00:28:59;12.85;;;5.45;;
46721;SDS011;32455;43.430;23.136;2022-12-04T00:31:45;14.50;;;6.90;;
46721;SDS011;32455;43.430;23.136;2022-12-04T00:34:31;14.27;;;7.28;;
46721;SDS011;32455;43.430;23.136;2022-12-04T00:37:18;12.10;;;6.15;;
46721;SDS011;32455;43.430;23.136;2022-12-04T00:40:03;19.00;;;7.05;;
46721;SDS011;32455;43.430;23.136;2022-12-04T00:42:49;16.02;;;7.18;;
46721;SDS011;32455;43.430;23.136;2022-12-04T00:45:34;13.98;;;6.65;;
46721;SDS011;32455;43.430;23.136;2022-12-04T00:48:20;11.80;;;5.57;;
46721;SDS011;32455;43.430;23.136;2022-12-04T00:51:06;13.75;;;6.72;;
46721;SDS011;32455;43.430;23.136;2022-12-04T00:53:54;15.25;;;6.68;;
46721;SDS011;32455;43.430;23.136;2022-12-04T00:56:39;15.02;;;6.30;;
46721;SDS011;32455;43.430;23.136;2022-12-04T00:59:25;13.60;;;6.32;;
46721;SDS011;32455;43.430;23.136;2022-12-04T01:02:10;11.65;;;6.15;;
46721;SDS011;32455;43.430;23.136;2022-12-04T01:04:56;14.07;;;6.85;;
46721;SDS011;32455;43.430;23.136;2022-12-04T01:07:44;12.57;;;6.10;;
46721;SDS011;32455;43.430;23.136;2022-12-04T01:10:29;12.90;;;6.05;;
46721;SDS011;32455;43.430;23.136;2022-12-04T01:13:14;13.32;;;6.45;;
46721;SDS011;32455;43.430;23.136;2022-12-04T01:15:59;14.90;;;6.03;;
46721;SDS011;32455;43.430;23.136;2022-12-04T01:18:45;14.82;;;7.22;;
46721;SDS011;32455;43.430;23.136;2022-12-04T01:21:31;13.82;;;6.53;;
46721;SDS011;32455;43.430;23.136;2022-12-04T01:24:16;12.10;;;6.30;;
46721;SDS011;32455;43.430;23.136;2022-12-04T01:27:02;19.05;;;6.72;;
46721;SDS011;32455;43.430;23.136;2022-12-04T01:29:47;10.98;;;5.50;;
46721;SDS011;32455;43.430;23.136;2022-12-04T01:32:32;13.32;;;6.80;;
46721;SDS011;32455;43.430;23.136;2022-12-04T01:35:17;12.18;;;5.80;;
46721;SDS011;32455;43.430;23.136;2022-12-04T01:38:03;12.43;;;5.93;;
46721;SDS011;32455;43.430;23.136;2022-12-04T01:40:48;14.30;;;5.93;;
46721;SDS011;32455;43.430;23.136;2022-12-04T01:43:35;7.95;;;4.80;;
46721;SDS011;32455;43.430;23.136;2022-12-04T01:46:21;11.82;;;5.25;;
46721;SDS011;32455;43.430;23.136;2022-12-04T01:49:08;11.15;;;5.20;;
46721;SDS011;32455;43.430;23.136;2022-12-04T01:52:02;13.25;;;5.97;;
46721;SDS011;32455;43.430;23.136;2022-12-04T01:54:55;10.80;;;5.47;;
46721;SDS011;32455;43.430;23.136;2022-12-04T01:57:43;8.75;;;5.55;;
46721;SDS011;32455;43.430;23.136;2022-12-04T02:00:29;12.68;;;5.15;;
46721;SDS011;32455;43.430;23.136;2022-12-04T02:03:14;12.65;;;6.30;;
46721;SDS011;32455;43.430;23.136;2022-12-04T02:06:00;13.65;;;6.00;;
46721;SDS011;32455;43.430;23.136;2022-12-04T02:08:46;13.70;;;6.43;;
46721;SDS011;32455;43.430;23.136;2022-12-04T02:14:51;10.32;;;5.65;;
46721;SDS011;32455;43.430;23.136;2022-12-04T02:23:45;10.27;;;5.68;;
46721;SDS011;32455;43.430;23.136;2022-12-04T02:27:05;7.97;;;4.68;;
46721;SDS011;32455;43.430;23.136;2022-12-04T02:29:59;9.38;;;5.13;;
46721;SDS011;32455;43.430;23.136;2022-12-04T02:32:55;6.40;;;4.07;;
46721;SDS011;32455;43.430;23.136;2022-12-04T02:36:05;20.52;;;3.47;;
46721;SDS011;32455;43.430;23.136;2022-12-04T02:39:33;16.98;;;3.70;;
46721;SDS011;32455;43.430;23.136;2022-12-04T02:45:32;6.15;;;3.20;;
46721;SDS011;32455;43.430;23.136;2022-12-04T02:48:22;51.47;;;4.13;;
46721;SDS011;32455;43.430;23.136;2022-12-04T02:51:10;41.53;;;3.53;;
46721;SDS011;32455;43.430;23.136;2022-12-04T02:54:03;24.33;;;3.30;;
46721;SDS011;32455;43.430;23.136;2022-12-04T02:56:53;57.95;;;3.70;;
46721;SDS011;32455;43.430;23.136;2022-12-04T02:59:40;11.50;;;3.42;;
46721;SDS011;32455;43.430;23.136;2022-12-04T03:05:17;46.33;;;4.18;;
46721;SDS011;32455;43.430;23.136;2022-12-04T03:08:10;24.02;;;4.07;;
46721;SDS011;32455;43.430;23.136;2022-12-04T03:11:00;10.90;;;4.45;;
46721;SDS011;32455;43.430;23.136;2022-12-04T03:13:48;23.95;;;4.32;;
46721;SDS011;32455;43.430;23.136;2022-12-04T03:16:40;10.23;;;4.50;;
46721;SDS011;32455;43.430;23.136;2022-12-04T03:19:27;35.05;;;5.30;;
46721;SDS011;32455;43.430;23.136;2022-12-04T03:22:18;31.17;;;4.78;;
46721;SDS011;32455;43.430;23.136;2022-12-04T03:25:06;41.10;;;4.75;;
46721;SDS011;32455;43.430;23.136;2022-12-04T03:28:01;61.22;;;5.30;;
46721;SDS011;32455;43.430;23.136;2022-12-04T03:30:52;66.55;;;5.65;;
46721;SDS011;32455;43.430;23.136;2022-12-04T03:36:32;63.10;;;5.97;;
46721;SDS011;32455;43.430;23.136;2022-12-04T03:39:26;45.55;;;5.25;;
46721;SDS011;32455;43.430;23.136;2022-12-04T03:42:24;91.38;;;6.50;;
46721;SDS011;32455;43.430;23.136;2022-12-04T03:45:20;61.17;;;5.85;;
46721;SDS011;32455;43.430;23.136;2022-12-04T03:48:11;81.13;;;6.45;;
46721;SDS011;32455;43.430;23.136;2022-12-04T03:51:08;59.13;;;5.32;;
46721;SDS011;32455;43.430;23.136;2022-12-04T03:54:07;162.35;;;8.43;;
46721;SDS011;32455;43.430;23.136;2022-12-04T03:57:00;86.15;;;5.80;;
46721;SDS011;32455;43.430;23.136;2022-12-04T04:00:05;121.60;;;6.78;;
46721;SDS011;32455;43.430;23.136;2022-12-04T04:03:06;161.38;;;7.60;;
46721;SDS011;32455;43.430;23.136;2022-12-04T04:06:11;199.55;;;7.65;;
46721;SDS011;32455;43.430;23.136;2022-12-04T04:09:01;218.82;;;8.95;;
46721;SDS011;32455;43.430;23.136;2022-12-04T04:14:54;180.15;;;7.00;;
46721;SDS011;32455;43.430;23.136;2022-12-04T04:18:09;226.15;;;8.60;;
46721;SDS011;32455;43.430;23.136;2022-12-04T04:21:15;213.30;;;8.10;;
46721;SDS011;32455;43.430;23.136;2022-12-04T04:24:36;259.00;;;9.15;;
46721;SDS011;32455;43.430;23.136;2022-12-04T04:27:23;221.43;;;8.27;;
46721;SDS011;32455;43.430;23.136;2022-12-04T04:30:09;245.23;;;10.40;;
46721;SDS011;32455;43.430;23.136;2022-12-04T04:33:14;199.38;;;9.50;;
46721;SDS011;32455;43.430;23.136;2022-12-04T04:36:23;183.38;;;9.27;;
46721;SDS011;32455;43.430;23.136;2022-12-04T04:39:33;174.82;;;7.70;;
46721;SDS011;32455;43.430;23.136;2022-12-04T04:42:43;256.30;;;9.65;;
46721;SDS011;32455;43.430;23.136;2022-12-04T04:45:45;190.68;;;9.13;;
46721;SDS011;32455;43.430;23.136;2022-12-04T04:48:35;191.35;;;8.77;;
46721;SDS011;32455;43.430;23.136;2022-12-04T04:51:26;186.05;;;7.82;;
46721;SDS011;32455;43.430;23.136;2022-12-04T04:54:13;128.18;;;7.82;;
46721;SDS011;32455;43.430;23.136;2022-12-04T04:57:01;258.73;;;9.75;;
46721;SDS011;32455;43.430;23.136;2022-12-04T04:59:47;187.27;;;8.68;;
46721;SDS011;32455;43.430;23.136;2022-12-04T05:02:32;182.07;;;7.63;;
46721;SDS011;32455;43.430;23.136;2022-12-04T05:05:18;157.63;;;8.23;;
46721;SDS011;32455;43.430;23.136;2022-12-04T05:08:03;198.85;;;8.57;;
46721;SDS011;32455;43.430;23.136;2022-12-04T05:10:49;211.07;;;8.65;;
46721;SDS011;32455;43.430;23.136;2022-12-04T05:13:34;140.93;;;8.10;;
46721;SDS011;32455;43.430;23.136;2022-12-04T05:16:19;262.88;;;10.43;;
46721;SDS011;32455;43.430;23.136;2022-12-04T05:19:05;163.07;;;8.40;;
46721;SDS011;32455;43.430;23.136;2022-12-04T05:22:10;157.98;;;7.88;;
46721;SDS011;32455;43.430;23.136;2022-12-04T05:24:56;153.18;;;8.07;;
46721;SDS011;32455;43.430;23.136;2022-12-04T05:27:43;170.90;;;6.80;;
46721;SDS011;32455;43.430;23.136;2022-12-04T05:30:28;210.27;;;8.32;;
46721;SDS011;32455;43.430;23.136;2022-12-04T05:33:14;174.57;;;7.53;;
46721;SDS011;32455;43.430;23.136;2022-12-04T05:36:00;197.00;;;8.18;;
46721;SDS011;32455;43.430;23.136;2022-12-04T05:38:47;192.88;;;7.75;;
46721;SDS011;32455;43.430;23.136;2022-12-04T05:41:33;194.27;;;7.63;;
46721;SDS011;32455;43.430;23.136;2022-12-04T05:44:18;198.65;;;8.32;;
46721;SDS011;32455;43.430;23.136;2022-12-04T05:47:05;217.63;;;9.10;;
46721;SDS011;32455;43.430;23.136;2022-12-04T05:49:51;254.63;;;9.63;;
46721;SDS011;32455;43.430;23.136;2022-12-04T05:52:36;189.80;;;6.93;;
46721;SDS011;32455;43.430;23.136;2022-12-04T05:55:22;150.63;;;7.57;;
46721;SDS011;32455;43.430;23.136;2022-12-04T05:58:08;136.85;;;8.85;;
46721;SDS011;32455;43.430;23.136;2022-12-04T06:00:53;99.45;;;6.93;;
46721;SDS011;32455;43.430;23.136;2022-12-04T06:03:39;138.35;;;7.47;;
46721;SDS011;32455;43.430;23.136;2022-12-04T06:06:25;177.35;;;8.80;;
46721;SDS011;32455;43.430;23.136;2022-12-04T06:09:11;83.55;;;6.68;;
46721;SDS011;32455;43.430;23.136;2022-12-04T06:11:57;170.93;;;7.13;;
46721;SDS011;32455;43.430;23.136;2022-12-04T06:14:42;215.27;;;7.57;;
46721;SDS011;32455;43.430;23.136;2022-12-04T06:17:28;194.55;;;10.00;;
46721;SDS011;32455;43.430;23.136;2022-12-04T06:20:13;159.48;;;7.60;;
46721;SDS011;32455;43.430;23.136;2022-12-04T06:22:59;180.25;;;7.20;;
46721;SDS011;32455;43.430;23.136;2022-12-04T06:25:44;207.13;;;7.75;;
46721;SDS011;32455;43.430;23.136;2022-12-04T06:28:30;183.32;;;8.13;;
46721;SDS011;32455;43.430;23.136;2022-12-04T06:31:16;165.50;;;7.78;;
46721;SDS011;32455;43.430;23.136;2022-12-04T06:34:03;198.65;;;7.85;;
46721;SDS011;32455;43.430;23.136;2022-12-04T06:36:49;181.35;;;7.75;;
46721;SDS011;32455;43.430;23.136;2022-12-04T06:39:35;211.55;;;8.00;;
46721;SDS011;32455;43.430;23.136;2022-12-04T06:42:20;221.90;;;8.60;;
46721;SDS011;32455;43.430;23.136;2022-12-04T06:45:05;196.00;;;8.82;;
46721;SDS011;32455;43.430;23.136;2022-12-04T06:47:50;184.88;;;7.78;;
46721;SDS011;32455;43.430;23.136;2022-12-04T06:50:36;158.32;;;7.18;;
46721;SDS011;32455;43.430;23.136;2022-12-04T06:53:20;169.55;;;6.82;;
46721;SDS011;32455;43.430;23.136;2022-12-04T06:56:07;136.35;;;7.28;;
46721;SDS011;32455;43.430;23.136;2022-12-04T06:58:55;112.25;;;6.15;;
46721;SDS011;32455;43.430;23.136;2022-12-04T07:01:42;159.48;;;7.97;;
46721;SDS011;32455;43.430;23.136;2022-12-04T07:04:27;179.93;;;8.45;;
46721;SDS011;32455;43.430;23.136;2022-12-04T07:07:13;140.02;;;6.53;;
46721;SDS011;32455;43.430;23.136;2022-12-04T07:09:58;253.35;;;9.15;;
46721;SDS011;32455;43.430;23.136;2022-12-04T07:12:43;194.27;;;8.73;;
46721;SDS011;32455;43.430;23.136;2022-12-04T07:15:28;225.43;;;8.60;;
46721;SDS011;32455;43.430;23.136;2022-12-04T07:18:14;229.88;;;8.88;;
46721;SDS011;32455;43.430;23.136;2022-12-04T07:21:03;221.95;;;9.20;;
46721;SDS011;32455;43.430;23.136;2022-12-04T07:23:52;192.35;;;7.90;;
46721;SDS011;32455;43.430;23.136;2022-12-04T07:26:40;175.75;;;8.40;;
46721;SDS011;32455;43.430;23.136;2022-12-04T07:29:25;189.80;;;8.45;;
46721;SDS011;32455;43.430;23.136;2022-12-04T07:32:12;191.07;;;7.93;;
46721;SDS011;32455;43.430;23.136;2022-12-04T07:34:57;178.32;;;8.73;;
46721;SDS011;32455;43.430;23.136;2022-12-04T07:37:42;169.60;;;7.97;;
46721;SDS011;32455;43.430;23.136;2022-12-04T07:40:28;162.57;;;7.25;;
46721;SDS011;32455;43.430;23.136;2022-12-04T07:43:13;119.75;;;6.20;;
46721;SDS011;32455;43.430;23.136;2022-12-04T07:46:03;31.92;;;5.22;;
46721;SDS011;32455;43.430;23.136;2022-12-04T07:48:53;38.10;;;5.10;;
46721;SDS011;32455;43.430;23.136;2022-12-04T07:51:41;107.95;;;5.70;;
46721;SDS011;32455;43.430;23.136;2022-12-04T07:54:26;67.63;;;5.10;;
46721;SDS011;32455;43.430;23.136;2022-12-04T07:57:12;62.33;;;4.63;;
46721;SDS011;32455;43.430;23.136;2022-12-04T07:59:57;63.08;;;5.93;;
46721;SDS011;32455;43.430;23.136;2022-12-04T08:02:43;36.65;;;5.30;;
46721;SDS011;32455;43.430;23.136;2022-12-04T08:05:28;63.65;;;6.40;;
46721;SDS011;32455;43.430;23.136;2022-12-04T08:08:15;15.82;;;4.50;;
46721;SDS011;32455;43.430;23.136;2022-12-04T08:11:04;39.33;;;5.05;;
46721;SDS011;32455;43.430;23.136;2022-12-04T08:13:54;14.07;;;4.83;;
46721;SDS011;32455;43.430;23.136;2022-12-04T08:16:41;58.28;;;4.88;;
46721;SDS011;32455;43.430;23.136;2022-12-04T08:19:27;34.97;;;4.88;;
46721;SDS011;32455;43.430;23.136;2022-12-04T08:22:13;40.13;;;5.70;;
46721;SDS011;32455;43.430;23.136;2022-12-04T08:24:59;40.28;;;5.25;;
46721;SDS011;32455;43.430;23.136;2022-12-04T08:27:44;65.50;;;5.75;;
46721;SDS011;32455;43.430;23.136;2022-12-04T08:30:31;33.40;;;5.25;;
46721;SDS011;32455;43.430;23.136;2022-12-04T08:33:19;45.67;;;5.78;;
46721;SDS011;32455;43.430;23.136;2022-12-04T08:36:08;30.25;;;6.65;;
46721;SDS011;32455;43.430;23.136;2022-12-04T08:38:55;134.15;;;7.75;;
46721;SDS011;32455;43.430;23.136;2022-12-04T08:41:41;54.60;;;6.15;;
46721;SDS011;32455;43.430;23.136;2022-12-04T08:44:26;51.28;;;7.43;;
46721;SDS011;32455;43.430;23.136;2022-12-04T08:47:12;57.47;;;5.88;;
46721;SDS011;32455;43.430;23.136;2022-12-04T08:49:58;83.03;;;6.30;;
46721;SDS011;32455;43.430;23.136;2022-12-04T08:52:43;127.57;;;7.60;;
46721;SDS011;32455;43.430;23.136;2022-12-04T08:55:29;107.82;;;5.95;;
46721;SDS011;32455;43.430;23.136;2022-12-04T08:58:15;170.25;;;7.85;;
46721;SDS011;32455;43.430;23.136;2022-12-04T09:01:04;148.63;;;7.63;;
46721;SDS011;32455;43.430;23.136;2022-12-04T09:03:53;74.72;;;6.50;;
46721;SDS011;32455;43.430;23.136;2022-12-04T09:06:38;63.53;;;6.25;;
46721;SDS011;32455;43.430;23.136;2022-12-04T09:09:23;95.93;;;6.07;;
46721;SDS011;32455;43.430;23.136;2022-12-04T09:12:09;57.03;;;6.10;;
46721;SDS011;32455;43.430;23.136;2022-12-04T09:14:55;154.65;;;6.95;;
46721;SDS011;32455;43.430;23.136;2022-12-04T09:17:40;179.05;;;7.63;;
46721;SDS011;32455;43.430;23.136;2022-12-04T09:20:26;130.38;;;6.95;;
46721;SDS011;32455;43.430;23.136;2022-12-04T09:23:11;164.35;;;8.32;;
46721;SDS011;32455;43.430;23.136;2022-12-04T09:25:57;177.88;;;8.63;;
46721;SDS011;32455;43.430;23.136;2022-12-04T09:28:42;154.48;;;8.30;;
46721;SDS011;32455;43.430;23.136;2022-12-04T09:31:29;154.55;;;7.82;;
46721;SDS011;32455;43.430;23.136;2022-12-04T09:34:15;72.60;;;8.88;;
46721;SDS011;32455;43.430;23.136;2022-12-04T09:37:00;143.10;;;10.30;;
46721;SDS011;32455;43.430;23.136;2022-12-04T09:39:46;156.52;;;8.30;;
46721;SDS011;32455;43.430;23.136;2022-12-04T09:45:50;140.40;;;9.13;;
46721;SDS011;32455;43.430;23.136;2022-12-04T09:48:39;136.63;;;7.93;;
46721;SDS011;32455;43.430;23.136;2022-12-04T09:51:27;89.60;;;7.88;;
46721;SDS011;32455;43.430;23.136;2022-12-04T09:54:17;155.25;;;8.85;;
46721;SDS011;32455;43.430;23.136;2022-12-04T09:57:19;178.90;;;8.15;;
46721;SDS011;32455;43.430;23.136;2022-12-04T10:00:12;170.25;;;8.20;;
46721;SDS011;32455;43.430;23.136;2022-12-04T10:03:01;236.32;;;9.25;;
46721;SDS011;32455;43.430;23.136;2022-12-04T10:09:05;234.63;;;9.38;;
46721;SDS011;32455;43.430;23.136;2022-12-04T10:15:24;133.25;;;10.27;;
46721;SDS011;32455;43.430;23.136;2022-12-04T10:21:19;111.05;;;9.05;;
46721;SDS011;32455;43.430;23.136;2022-12-04T10:24:22;92.20;;;8.85;;
46721;SDS011;32455;43.430;23.136;2022-12-04T10:36:16;125.65;;;8.45;;
46721;SDS011;32455;43.430;23.136;2022-12-04T10:46:00;221.60;;;10.63;;
46721;SDS011;32455;43.430;23.136;2022-12-04T10:48:46;222.75;;;10.93;;
46721;SDS011;32455;43.430;23.136;2022-12-04T10:51:40;216.52;;;12.40;;
46721;SDS011;32455;43.430;23.136;2022-12-04T10:54:33;151.00;;;11.10;;
46721;SDS011;32455;43.430;23.136;2022-12-04T10:57:21;203.00;;;11.43;;
46721;SDS011;32455;43.430;23.136;2022-12-04T11:00:24;208.73;;;10.88;;
46721;SDS011;32455;43.430;23.136;2022-12-04T11:03:24;34.38;;;8.50;;
46721;SDS011;32455;43.430;23.136;2022-12-04T11:06:12;87.63;;;10.32;;
46721;SDS011;32455;43.430;23.136;2022-12-04T11:08:58;168.88;;;14.90;;
46721;SDS011;32455;43.430;23.136;2022-12-04T11:11:45;201.98;;;11.80;;
46721;SDS011;32455;43.430;23.136;2022-12-04T11:14:30;127.75;;;11.10;;
46721;SDS011;32455;43.430;23.136;2022-12-04T11:17:17;170.57;;;10.63;;
46721;SDS011;32455;43.430;23.136;2022-12-04T11:20:05;195.07;;;12.00;;
46721;SDS011;32455;43.430;23.136;2022-12-04T11:22:56;168.70;;;10.70;;
46721;SDS011;32455;43.430;23.136;2022-12-04T11:25:46;193.40;;;11.02;;
46721;SDS011;32455;43.430;23.136;2022-12-04T11:28:33;132.93;;;9.23;;
46721;SDS011;32455;43.430;23.136;2022-12-04T11:31:20;210.30;;;10.45;;
46721;SDS011;32455;43.430;23.136;2022-12-04T11:34:08;175.90;;;9.73;;
46721;SDS011;32455;43.430;23.136;2022-12-04T11:37:02;120.72;;;11.00;;
46721;SDS011;32455;43.430;23.136;2022-12-04T11:39:47;81.60;;;10.55;;
46721;SDS011;32455;43.430;23.136;2022-12-04T11:42:34;119.00;;;11.25;;
46721;SDS011;32455;43.430;23.136;2022-12-04T11:45:21;95.30;;;10.52;;
46721;SDS011;32455;43.430;23.136;2022-12-04T11:48:14;84.03;;;10.70;;
46721;SDS011;32455;43.430;23.136;2022-12-04T11:54:07;106.85;;;10.25;;
46721;SDS011;32455;43.430;23.136;2022-12-04T11:57:15;146.45;;;13.05;;
46721;SDS011;32455;43.430;23.136;2022-12-04T12:00:24;121.80;;;11.30;;
46721;SDS011;32455;43.430;23.136;2022-12-04T12:03:30;135.25;;;11.10;;
46721;SDS011;32455;43.430;23.136;2022-12-04T12:10:03;142.43;;;13.00;;
46721;SDS011;32455;43.430;23.136;2022-12-04T12:13:11;68.78;;;10.70;;
46721;SDS011;32455;43.430;23.136;2022-12-04T12:16:20;96.30;;;10.25;;
46721;SDS011;32455;43.430;23.136;2022-12-04T12:25:25;81.47;;;12.52;;
46721;SDS011;32455;43.430;23.136;2022-12-04T12:34:54;40.53;;;12.07;;
46721;SDS011;32455;43.430;23.136;2022-12-04T12:38:14;83.30;;;13.50;;
46721;SDS011;32455;43.430;23.136;2022-12-04T12:47:16;122.82;;;12.20;;
46721;SDS011;32455;43.430;23.136;2022-12-04T12:50:15;75.53;;;11.60;;
46721;SDS011;32455;43.430;23.136;2022-12-04T12:53:12;147.82;;;14.57;;
46721;SDS011;32455;43.430;23.136;2022-12-04T12:56:02;137.52;;;14.50;;
46721;SDS011;32455;43.430;23.136;2022-12-04T12:58:50;143.88;;;12.98;;
46721;SDS011;32455;43.430;23.136;2022-12-04T13:05:08;87.22;;;12.30;;
46721;SDS011;32455;43.430;23.136;2022-12-04T13:08:02;117.43;;;13.68;;
46721;SDS011;32455;43.430;23.136;2022-12-04T13:14:09;135.95;;;12.55;;
46721;SDS011;32455;43.430;23.136;2022-12-04T13:16:59;96.93;;;13.50;;
46721;SDS011;32455;43.430;23.136;2022-12-04T13:19:51;138.27;;;13.07;;
46721;SDS011;32455;43.430;23.136;2022-12-04T13:26:18;129.73;;;13.30;;
46721;SDS011;32455;43.430;23.136;2022-12-04T13:29:32;102.55;;;12.85;;
46721;SDS011;32455;43.430;23.136;2022-12-04T13:41:24;247.77;;;15.95;;
46721;SDS011;32455;43.430;23.136;2022-12-04T13:44:12;241.93;;;14.13;;
46721;SDS011;32455;43.430;23.136;2022-12-04T13:47:07;253.23;;;15.50;;
46721;SDS011;32455;43.430;23.136;2022-12-04T13:53:35;256.70;;;15.57;;
46721;SDS011;32455;43.430;23.136;2022-12-04T13:56:25;275.93;;;16.27;;
46721;SDS011;32455;43.430;23.136;2022-12-04T14:02:22;249.30;;;14.45;;
46721;SDS011;32455;43.430;23.136;2022-12-04T14:05:12;213.15;;;14.27;;
46721;SDS011;32455;43.430;23.136;2022-12-04T14:08:01;188.57;;;12.63;;
46721;SDS011;32455;43.430;23.136;2022-12-04T14:10:57;76.93;;;12.68;;
46721;SDS011;32455;43.430;23.136;2022-12-04T14:13:52;222.13;;;14.50;;
46721;SDS011;32455;43.430;23.136;2022-12-04T14:16:40;208.45;;;14.02;;
46721;SDS011;32455;43.430;23.136;2022-12-04T14:19:30;223.27;;;14.82;;
46721;SDS011;32455;43.430;23.136;2022-12-04T14:25:20;316.48;;;15.27;;
46721;SDS011;32455;43.430;23.136;2022-12-04T14:31:18;298.38;;;14.65;;
46721;SDS011;32455;43.430;23.136;2022-12-04T14:34:28;265.13;;;16.23;;
46721;SDS011;32455;43.430;23.136;2022-12-04T14:37:33;259.08;;;13.90;;
46721;SDS011;32455;43.430;23.136;2022-12-04T14:40:25;236.70;;;12.88;;
46721;SDS011;32455;43.430;23.136;2022-12-04T14:43:19;222.55;;;13.25;;
46721;SDS011;32455;43.430;23.136;2022-12-04T14:46:14;108.05;;;12.48;;
46721;SDS011;32455;43.430;23.136;2022-12-04T14:52:38;142.25;;;11.73;;
46721;SDS011;32455;43.430;23.136;2022-12-04T14:55:45;118.57;;;14.60;;
46721;SDS011;32455;43.430;23.136;2022-12-04T14:58:36;206.60;;;12.68;;
46721;SDS011;32455;43.430;23.136;2022-12-04T15:01:26;149.20;;;13.48;;
46721;SDS011;32455;43.430;23.136;2022-12-04T15:07:18;192.68;;;14.15;;
46721;SDS011;32455;43.430;23.136;2022-12-04T15:10:17;181.90;;;13.65;;
46721;SDS011;32455;43.430;23.136;2022-12-04T15:13:26;197.32;;;13.90;;
46721;SDS011;32455;43.430;23.136;2022-12-04T15:16:15;246.85;;;12.52;;
46721;SDS011;32455;43.430;23.136;2022-12-04T15:19:03;165.13;;;11.40;;
46721;SDS011;32455;43.430;23.136;2022-12-04T15:21:48;275.02;;;13.55;;
46721;SDS011;32455;43.430;23.136;2022-12-04T15:24:33;257.90;;;11.52;;
46721;SDS011;32455;43.430;23.136;2022-12-04T15:27:18;251.77;;;12.73;;
46721;SDS011;32455;43.430;23.136;2022-12-04T15:30:12;197.93;;;10.73;;
46721;SDS011;32455;43.430;23.136;2022-12-04T15:33:03;207.35;;;11.52;;
46721;SDS011;32455;43.430;23.136;2022-12-04T15:39:04;273.42;;;12.68;;
46721;SDS011;32455;43.430;23.136;2022-12-04T15:41:50;251.82;;;13.05;;
46721;SDS011;32455;43.430;23.136;2022-12-04T15:44:36;165.93;;;10.82;;
46721;SDS011;32455;43.430;23.136;2022-12-04T15:47:22;209.65;;;13.15;;
46721;SDS011;32455;43.430;23.136;2022-12-04T15:53:19;183.02;;;12.15;;
46721;SDS011;32455;43.430;23.136;2022-12-04T15:56:20;119.05;;;10.82;;
46721;SDS011;32455;43.430;23.136;2022-12-04T15:59:12;133.10;;;10.68;;
46721;SDS011;32455;43.430;23.136;2022-12-04T16:05:22;143.18;;;11.32;;
46721;SDS011;32455;43.430;23.136;2022-12-04T16:14:13;219.98;;;11.95;;
46721;SDS011;32455;43.430;23.136;2022-12-04T16:17:01;170.98;;;10.88;;
46721;SDS011;32455;43.430;23.136;2022-12-04T16:19:46;191.35;;;11.98;;
46721;SDS011;32455;43.430;23.136;2022-12-04T16:22:32;203.40;;;11.93;;
46721;SDS011;32455;43.430;23.136;2022-12-04T16:25:17;167.27;;;11.85;;
46721;SDS011;32455;43.430;23.136;2022-12-04T16:28:03;201.27;;;12.77;;
46721;SDS011;32455;43.430;23.136;2022-12-04T16:30:49;231.15;;;13.48;;
46721;SDS011;32455;43.430;23.136;2022-12-04T16:33:36;307.55;;;15.70;;
46721;SDS011;32455;43.430;23.136;2022-12-04T16:36:22;273.70;;;13.48;;
46721;SDS011;32455;43.430;23.136;2022-12-04T16:39:09;209.10;;;13.15;;
46721;SDS011;32455;43.430;23.136;2022-12-04T16:41:55;202.02;;;13.93;;
46721;SDS011;32455;43.430;23.136;2022-12-04T16:44:40;239.55;;;16.65;;
46721;SDS011;32455;43.430;23.136;2022-12-04T16:47:25;253.73;;;14.35;;
46721;SDS011;32455;43.430;23.136;2022-12-04T16:50:11;266.83;;;14.82;;
46721;SDS011;32455;43.430;23.136;2022-12-04T16:52:56;279.60;;;15.40;;
46721;SDS011;32455;43.430;23.136;2022-12-04T16:55:43;246.13;;;16.60;;
46721;SDS011;32455;43.430;23.136;2022-12-04T16:58:33;224.35;;;15.48;;
46721;SDS011;32455;43.430;23.136;2022-12-04T17:01:22;269.73;;;16.55;;
46721;SDS011;32455;43.430;23.136;2022-12-04T17:04:11;257.85;;;15.38;;
46721;SDS011;32455;43.430;23.136;2022-12-04T17:06:56;211.23;;;15.10;;
46721;SDS011;32455;43.430;23.136;2022-12-04T17:09:41;288.83;;;16.30;;
46721;SDS011;32455;43.430;23.136;2022-12-04T17:12:27;255.60;;;24.75;;
46721;SDS011;32455;43.430;23.136;2022-12-04T17:15:12;267.33;;;16.15;;
46721;SDS011;32455;43.430;23.136;2022-12-04T17:17:57;360.00;;;15.85;;
46721;SDS011;32455;43.430;23.136;2022-12-04T17:20:42;272.92;;;13.18;;
46721;SDS011;32455;43.430;23.136;2022-12-04T17:23:28;270.38;;;15.82;;
46721;SDS011;32455;43.430;23.136;2022-12-04T17:26:13;158.98;;;13.30;;
46721;SDS011;32455;43.430;23.136;2022-12-04T17:28:59;255.50;;;14.07;;
46721;SDS011;32455;43.430;23.136;2022-12-04T17:31:45;283.52;;;16.13;;
46721;SDS011;32455;43.430;23.136;2022-12-04T17:34:30;244.68;;;13.18;;
46721;SDS011;32455;43.430;23.136;2022-12-04T17:37:15;228.50;;;13.75;;
46721;SDS011;32455;43.430;23.136;2022-12-04T17:40:02;256.20;;;12.68;;
46721;SDS011;32455;43.430;23.136;2022-12-04T17:42:48;263.63;;;13.23;;
46721;SDS011;32455;43.430;23.136;2022-12-04T17:45:33;191.95;;;12.70;;
46721;SDS011;32455;43.430;23.136;2022-12-04T17:48:18;246.13;;;13.90;;
46721;SDS011;32455;43.430;23.136;2022-12-04T17:51:07;267.30;;;14.43;;
46721;SDS011;32455;43.430;23.136;2022-12-04T17:53:54;218.32;;;13.32;;
46721;SDS011;32455;43.430;23.136;2022-12-04T17:56:40;131.60;;;12.10;;
46721;SDS011;32455;43.430;23.136;2022-12-04T17:59:27;158.85;;;12.27;;
46721;SDS011;32455;43.430;23.136;2022-12-04T18:02:13;249.05;;;14.75;;
46721;SDS011;32455;43.430;23.136;2022-12-04T18:04:59;236.65;;;13.60;;
46721;SDS011;32455;43.430;23.136;2022-12-04T18:07:44;178.90;;;11.43;;
46721;SDS011;32455;43.430;23.136;2022-12-04T18:10:30;200.07;;;14.27;;
46721;SDS011;32455;43.430;23.136;2022-12-04T18:13:18;269.67;;;13.57;;
46721;SDS011;32455;43.430;23.136;2022-12-04T18:16:04;208.70;;;13.93;;
46721;SDS011;32455;43.430;23.136;2022-12-04T18:18:55;237.18;;;19.45;;
46721;SDS011;32455;43.430;23.136;2022-12-04T18:21:41;248.85;;;19.23;;
46721;SDS011;32455;43.430;23.136;2022-12-04T18:24:27;171.63;;;14.90;;
46721;SDS011;32455;43.430;23.136;2022-12-04T18:27:12;151.02;;;13.18;;